createdAt,value
2018-07-22T00:01:31.699Z,17.00
2018-07-22T00:03:59.983Z,17.00
2018-07-22T00:08:56.690Z,16.90
2018-07-22T00:11:25.264Z,16.90
2018-07-22T00:13:53.537Z,16.90
2018-07-22T00:16:22.202Z,16.90
2018-07-22T00:18:50.509Z,16.90
2018-07-22T00:21:18.857Z,16.90
2018-07-22T00:23:47.169Z,16.90
2018-07-22T00:26:15.436Z,16.90
2018-07-22T00:31:12.200Z,16.90
2018-07-22T00:33:40.526Z,17.00
2018-07-22T00:36:08.837Z,16.90
2018-07-22T00:38:37.143Z,16.90
2018-07-22T00:41:05.681Z,16.90
2018-07-22T00:43:34.355Z,17.00
2018-07-22T00:46:02.659Z,17.00
2018-07-22T00:48:30.986Z,17.00
2018-07-22T00:50:59.512Z,17.00
2018-07-22T00:53:27.770Z,17.00
2018-07-22T00:55:56.057Z,17.00
2018-07-22T00:58:24.371Z,17.00
2018-07-22T01:00:53.050Z,17.00
2018-07-22T01:03:21.668Z,17.00
2018-07-22T01:05:50.005Z,16.90
2018-07-22T01:08:18.313Z,16.90
2018-07-22T01:10:46.648Z,16.90
2018-07-22T01:15:43.043Z,16.90
2018-07-22T01:18:11.339Z,16.90
2018-07-22T01:20:39.902Z,16.90
2018-07-22T01:23:08.188Z,16.90
2018-07-22T01:25:36.537Z,16.90
2018-07-22T01:28:04.848Z,16.90
2018-07-22T01:30:33.487Z,16.90
2018-07-22T01:33:01.809Z,16.90
2018-07-22T01:35:30.151Z,17.00
2018-07-22T01:37:58.423Z,17.00
2018-07-22T01:40:26.752Z,17.00
2018-07-22T01:42:55.026Z,17.00
2018-07-22T01:45:23.291Z,17.00
2018-07-22T01:47:51.583Z,17.00
2018-07-22T01:50:19.863Z,17.00
2018-07-22T01:52:48.198Z,17.00
2018-07-22T01:55:16.463Z,17.00
2018-07-22T01:57:44.772Z,17.00
2018-07-22T02:00:13.040Z,17.00
2018-07-22T02:02:41.322Z,17.00
2018-07-22T02:05:09.967Z,17.00
2018-07-22T02:07:38.397Z,17.00
2018-07-22T02:10:06.709Z,17.00
2018-07-22T02:12:35.025Z,17.00
2018-07-22T02:15:03.793Z,16.90
2018-07-22T02:17:32.114Z,16.90
2018-07-22T02:20:00.412Z,17.00
2018-07-22T02:22:28.809Z,16.90
2018-07-22T02:24:57.124Z,16.90
2018-07-22T02:27:25.414Z,16.90
2018-07-22T02:29:53.775Z,17.00
2018-07-22T02:32:22.106Z,17.00
2018-07-22T02:34:50.748Z,17.00
2018-07-22T02:37:19.081Z,16.90
2018-07-22T02:39:47.360Z,17.00
2018-07-22T02:42:15.707Z,17.00
2018-07-22T02:44:44.380Z,17.00
2018-07-22T02:47:12.683Z,17.00
2018-07-22T02:52:09.270Z,17.00
2018-07-22T02:54:37.612Z,17.00
2018-07-22T02:57:06.678Z,17.00
2018-07-22T02:59:34.991Z,17.00
2018-07-22T03:02:03.287Z,17.00
2018-07-22T03:04:31.606Z,17.00
2018-07-22T03:06:59.961Z,17.00
2018-07-22T03:09:28.275Z,17.10
2018-07-22T03:11:56.543Z,17.10
2018-07-22T03:14:24.831Z,17.10
2018-07-22T03:16:53.094Z,17.10
2018-07-22T03:19:21.368Z,17.10
2018-07-22T03:21:49.679Z,17.10
2018-07-22T03:24:18.325Z,17.10
2018-07-22T03:26:46.641Z,17.10
2018-07-22T03:29:14.934Z,17.10
2018-07-22T03:31:43.268Z,17.10
2018-07-22T03:34:11.614Z,17.10
2018-07-22T03:39:09.753Z,17.00
2018-07-22T03:41:38.328Z,17.00
2018-07-22T03:44:06.740Z,17.00
2018-07-22T03:46:35.581Z,17.10
2018-07-22T03:49:03.885Z,17.10
2018-07-22T03:51:32.225Z,17.00
2018-07-22T03:54:00.542Z,17.00
2018-07-22T03:56:28.838Z,17.00
2018-07-22T03:58:57.188Z,17.00
2018-07-22T04:01:25.623Z,16.90
2018-07-22T04:03:53.909Z,17.00
2018-07-22T04:06:22.211Z,16.90
2018-07-22T04:08:51.071Z,16.90
2018-07-22T04:11:19.410Z,16.90
2018-07-22T04:13:47.683Z,16.90
2018-07-22T04:16:15.974Z,16.90
2018-07-22T04:18:48.917Z,17.00
2018-07-22T04:21:17.848Z,17.00
2018-07-22T04:23:46.322Z,17.00
2018-07-22T04:26:15.163Z,17.00
2018-07-22T04:28:45.780Z,17.10
2018-07-22T04:31:14.220Z,17.00
2018-07-22T04:33:43.427Z,17.10
2018-07-22T04:36:12.273Z,17.10
2018-07-22T04:38:42.830Z,17.10
2018-07-22T04:41:12.025Z,17.20
2018-07-22T04:43:40.879Z,17.20
2018-07-22T04:46:09.723Z,17.20
2018-07-22T04:48:38.590Z,17.30
2018-07-22T04:51:07.750Z,17.30
2018-07-22T04:53:36.617Z,17.40
2018-07-22T04:56:05.649Z,17.40
2018-07-22T04:58:34.524Z,17.50
2018-07-22T05:01:03.103Z,17.50
2018-07-22T05:03:32.006Z,17.50
2018-07-22T05:06:00.903Z,17.50
2018-07-22T05:08:29.786Z,17.50
2018-07-22T05:10:58.642Z,17.60
2018-07-22T05:13:27.502Z,17.60
2018-07-22T05:15:56.362Z,17.70
2018-07-22T05:18:25.222Z,17.70
2018-07-22T05:23:22.920Z,17.80
2018-07-22T05:25:51.948Z,17.80
2018-07-22T05:28:20.896Z,17.90
2018-07-22T05:30:49.912Z,18.00
2018-07-22T05:33:18.759Z,18.10
2018-07-22T05:35:47.644Z,18.20
2018-07-22T05:38:16.674Z,18.20
2018-07-22T05:43:14.172Z,18.50
2018-07-22T05:45:43.029Z,18.60
2018-07-22T05:48:11.886Z,18.70
2018-07-22T05:50:40.759Z,18.70
2018-07-22T05:53:09.632Z,18.90
2018-07-22T05:55:38.859Z,19.00
2018-07-22T05:58:07.749Z,19.20
2018-07-22T06:00:36.059Z,19.30
2018-07-22T06:03:04.930Z,19.50
2018-07-22T06:05:33.993Z,19.70
2018-07-22T06:08:02.831Z,20.00
2018-07-22T06:10:31.712Z,20.20
2018-07-22T06:13:00.578Z,20.40
2018-07-22T06:15:29.438Z,20.60
2018-07-22T06:17:58.295Z,20.80
2018-07-22T06:20:27.461Z,20.90
2018-07-22T06:22:56.361Z,21.00
2018-07-22T06:25:25.239Z,21.20
2018-07-22T06:27:54.407Z,21.20
2018-07-22T06:30:23.255Z,21.30
2018-07-22T06:32:52.068Z,21.40
2018-07-22T06:35:21.018Z,21.50
2018-07-22T06:40:19.169Z,21.70
2018-07-22T06:42:48.004Z,21.70
2018-07-22T06:45:16.960Z,21.70
2018-07-22T06:47:45.869Z,21.70
2018-07-22T06:50:14.736Z,21.80
2018-07-22T06:52:43.615Z,21.80
2018-07-22T06:55:12.459Z,21.90
2018-07-22T06:57:41.584Z,21.80
2018-07-22T07:00:10.480Z,21.70
2018-07-22T07:02:39.018Z,21.80
2018-07-22T07:07:36.980Z,21.80
2018-07-22T07:10:06.104Z,21.80
2018-07-22T07:12:34.942Z,21.80
2018-07-22T07:15:03.949Z,21.90
2018-07-22T07:17:33.140Z,22.00
2018-07-22T07:20:01.990Z,22.10
2018-07-22T07:22:30.849Z,22.20
2018-07-22T07:24:59.705Z,22.30
2018-07-22T07:27:28.515Z,22.50
2018-07-22T07:29:57.403Z,22.60
2018-07-22T07:32:26.433Z,22.70
2018-07-22T07:34:55.308Z,22.80
2018-07-22T07:37:24.700Z,22.90
2018-07-22T07:39:53.555Z,23.10
2018-07-22T07:42:22.414Z,23.20
2018-07-22T07:44:51.666Z,23.30
2018-07-22T07:47:20.575Z,23.30
2018-07-22T07:49:49.459Z,23.40
2018-07-22T07:52:18.361Z,23.60
2018-07-22T07:54:47.254Z,23.70
2018-07-22T07:57:16.768Z,24.00
2018-07-22T07:59:45.615Z,24.10
2018-07-22T08:02:14.196Z,24.10
2018-07-22T08:04:43.430Z,24.20
2018-07-22T08:07:12.322Z,24.20
2018-07-22T08:12:09.796Z,24.30
2018-07-22T08:14:38.677Z,24.30
2018-07-22T08:17:07.539Z,24.40
2018-07-22T08:19:36.426Z,24.40
2018-07-22T08:22:05.937Z,24.50
2018-07-22T08:27:04.478Z,24.30
2018-07-22T08:29:34.335Z,24.30
2018-07-22T08:32:04.682Z,24.50
2018-07-22T08:34:33.622Z,24.50
2018-07-22T08:37:03.086Z,24.60
2018-07-22T08:39:32.902Z,24.60
2018-07-22T08:42:02.360Z,24.50
2018-07-22T08:44:31.242Z,24.50
2018-07-22T08:47:00.320Z,24.70
2018-07-22T08:49:29.187Z,24.80
2018-07-22T08:51:58.388Z,24.90
2018-07-22T08:54:27.529Z,25.00
2018-07-22T08:56:56.445Z,25.10
2018-07-22T08:59:25.281Z,25.10
2018-07-22T09:01:54.214Z,25.10
2018-07-22T09:04:23.060Z,25.10
2018-07-22T09:06:52.161Z,25.30
2018-07-22T09:09:21.047Z,25.30
2018-07-22T09:11:49.920Z,25.40
2018-07-22T09:14:19.092Z,25.50
2018-07-22T09:16:47.978Z,25.50
2018-07-22T09:19:16.882Z,25.40
2018-07-22T09:21:45.922Z,25.40
2018-07-22T09:24:14.771Z,25.50
2018-07-22T09:26:43.683Z,25.60
2018-07-22T09:29:12.649Z,25.70
2018-07-22T09:31:41.581Z,25.70
2018-07-22T09:34:10.813Z,25.80
2018-07-22T09:36:39.857Z,26.00
2018-07-22T09:39:10.672Z,26.10
2018-07-22T09:41:39.571Z,26.00
2018-07-22T09:44:08.511Z,26.10
2018-07-22T09:46:38.006Z,26.00
2018-07-22T09:49:06.891Z,25.90
2018-07-22T09:51:36.074Z,26.00
2018-07-22T09:54:05.009Z,25.80
2018-07-22T09:56:33.940Z,25.70
2018-07-22T09:59:03.920Z,25.60
2018-07-22T10:01:32.800Z,25.70
2018-07-22T10:04:01.663Z,25.90
2018-07-22T10:06:30.518Z,26.00
2018-07-22T10:08:59.433Z,26.30
2018-07-22T10:11:28.325Z,26.50
2018-07-22T10:13:57.188Z,26.60
2018-07-22T10:16:26.098Z,26.60
2018-07-22T10:18:55.264Z,26.70
2018-07-22T10:21:24.468Z,26.80
2018-07-22T10:23:53.136Z,27.00
2018-07-22T10:26:22.059Z,26.70
2018-07-22T10:28:50.681Z,26.60
2018-07-22T10:31:19.289Z,26.70
2018-07-22T10:33:48.498Z,26.70
2018-07-22T10:36:17.130Z,26.60
2018-07-22T10:38:45.730Z,26.60
2018-07-22T10:41:14.338Z,26.60
2018-07-22T10:43:43.213Z,26.80
2018-07-22T10:46:12.426Z,26.70
2018-07-22T10:48:41.301Z,26.40
2018-07-22T10:51:10.581Z,26.30
2018-07-22T10:56:04.528Z,26.40
2018-07-22T10:58:33.424Z,26.60
2018-07-22T11:01:02.355Z,26.40
2018-07-22T11:03:31.250Z,26.30
2018-07-22T11:06:00.136Z,26.30
2018-07-22T11:08:29.005Z,26.40
2018-07-22T11:10:57.895Z,26.30
2018-07-22T11:13:27.083Z,26.10
2018-07-22T11:15:55.989Z,26.30
2018-07-22T11:18:25.425Z,26.40
2018-07-22T11:20:54.540Z,26.40
2018-07-22T11:23:23.558Z,26.50
2018-07-22T11:25:52.422Z,26.50
2018-07-22T11:28:21.329Z,26.50
2018-07-22T11:30:50.525Z,26.60
2018-07-22T11:33:19.374Z,26.60
2018-07-22T11:35:49.183Z,26.60
2018-07-22T11:38:18.058Z,26.60
2018-07-22T11:40:47.033Z,26.70
2018-07-22T11:43:15.932Z,26.60
2018-07-22T11:45:44.909Z,26.50
2018-07-22T11:48:13.786Z,26.60
2018-07-22T11:50:42.712Z,26.70
2018-07-22T11:53:11.799Z,26.80
2018-07-22T11:55:40.693Z,26.90
2018-07-22T11:58:09.594Z,27.00
2018-07-22T12:00:38.021Z,27.00
2018-07-22T12:03:06.625Z,26.70
2018-07-22T12:05:35.535Z,26.40
2018-07-22T12:08:04.524Z,26.20
2018-07-22T12:10:33.457Z,26.10
2018-07-22T12:13:02.348Z,26.00
2018-07-22T12:15:31.249Z,25.70
2018-07-22T12:18:00.152Z,25.70
2018-07-22T12:20:29.065Z,25.80
2018-07-22T12:22:57.953Z,26.00
2018-07-22T12:25:27.703Z,26.10
2018-07-22T12:27:56.560Z,26.10
2018-07-22T12:30:25.438Z,26.10
2018-07-22T12:32:54.344Z,25.90
2018-07-22T12:35:23.346Z,25.80
2018-07-22T12:37:52.262Z,25.70
2018-07-22T12:40:21.210Z,25.60
2018-07-22T12:42:50.247Z,25.50
2018-07-22T12:45:19.147Z,25.40
2018-07-22T12:47:48.059Z,25.30
2018-07-22T12:50:16.961Z,25.20
2018-07-22T12:52:45.817Z,25.10
2018-07-22T12:55:14.704Z,25.10
2018-07-22T12:57:43.590Z,25.30
2018-07-22T13:01:47.102Z,25.40
2018-07-22T13:04:16.089Z,25.30
2018-07-22T13:06:45.047Z,25.30
2018-07-22T13:09:14.106Z,25.00
2018-07-22T13:11:43.065Z,25.00
2018-07-22T13:14:11.929Z,25.30
2018-07-22T13:16:40.810Z,25.30
2018-07-22T13:19:09.924Z,25.30
2018-07-22T13:21:39.411Z,25.10
2018-07-22T13:24:09.651Z,25.00
2018-07-22T13:26:38.510Z,25.10
2018-07-22T13:29:07.559Z,25.00
2018-07-22T13:31:36.499Z,24.80
2018-07-22T13:34:05.896Z,24.80
2018-07-22T13:36:35.125Z,24.80
2018-07-22T13:39:06.746Z,24.90
2018-07-22T13:44:04.517Z,25.10
2018-07-22T13:46:33.366Z,25.10
2018-07-22T13:49:02.266Z,25.20
2018-07-22T13:51:31.570Z,25.00
2018-07-22T13:54:00.496Z,25.00
2018-07-22T13:56:29.699Z,25.20
2018-07-22T13:58:58.661Z,25.20
2018-07-22T14:01:27.004Z,25.10
2018-07-22T14:03:55.911Z,25.00
2018-07-22T14:06:24.815Z,25.00
2018-07-22T14:08:53.658Z,25.10
2018-07-22T14:11:22.556Z,24.90
2018-07-22T14:13:51.455Z,25.00
2018-07-22T14:16:20.417Z,25.20
2018-07-22T14:18:49.319Z,25.30
2018-07-22T14:21:18.205Z,25.10
2018-07-22T14:23:47.082Z,25.10
2018-07-22T14:26:15.975Z,25.10
2018-07-22T14:28:44.842Z,25.10
2018-07-22T14:31:14.048Z,25.10
2018-07-22T14:36:11.570Z,25.50
2018-07-22T14:38:40.806Z,25.60
2018-07-22T14:41:09.673Z,25.60
2018-07-22T14:43:38.556Z,25.80
2018-07-22T14:46:07.832Z,26.00
2018-07-22T14:48:36.604Z,26.20
2018-07-22T14:53:34.202Z,26.80
2018-07-22T14:56:02.935Z,27.10
2018-07-22T14:58:31.554Z,27.40
2018-07-22T15:01:00.314Z,27.40
2018-07-22T15:03:28.960Z,27.10
2018-07-22T15:05:57.588Z,26.80
2018-07-22T15:08:26.226Z,26.80
2018-07-22T15:10:54.840Z,26.80
2018-07-22T15:13:23.465Z,26.60
2018-07-22T15:15:52.195Z,26.60
2018-07-22T15:18:20.886Z,26.70
2018-07-22T15:20:49.942Z,26.70
2018-07-22T15:23:18.539Z,26.80
2018-07-22T15:25:47.313Z,26.60
2018-07-22T15:28:15.890Z,26.40
2018-07-22T15:30:45.008Z,26.50
2018-07-22T15:33:13.606Z,26.50
2018-07-22T15:35:42.558Z,26.20
2018-07-22T15:38:11.755Z,26.30
2018-07-22T15:40:40.348Z,26.60
2018-07-22T15:43:09.306Z,27.00
2018-07-22T15:45:38.105Z,27.60
2018-07-22T15:48:06.674Z,27.70
2018-07-22T15:50:35.266Z,27.80
2018-07-22T15:53:03.886Z,28.00
2018-07-22T15:55:32.971Z,28.30
2018-07-22T15:58:01.556Z,28.20
2018-07-22T16:00:30.137Z,27.90
2018-07-22T16:02:58.724Z,28.00
2018-07-22T16:05:27.376Z,28.50
2018-07-22T16:07:56.005Z,29.00
2018-07-22T16:10:24.609Z,28.80
2018-07-22T16:12:53.204Z,28.40
2018-07-22T16:15:21.826Z,28.20
2018-07-22T16:17:50.855Z,28.70
2018-07-22T16:20:19.665Z,28.50
2018-07-22T16:22:48.268Z,28.40
2018-07-22T16:25:16.932Z,28.70
2018-07-22T16:27:45.600Z,28.80
2018-07-22T16:30:14.579Z,28.60
2018-07-22T16:32:43.210Z,28.70
2018-07-22T16:35:11.793Z,28.90
2018-07-22T16:37:40.331Z,29.40
2018-07-22T16:42:37.513Z,29.30
2018-07-22T16:47:34.744Z,29.30
2018-07-22T16:50:03.334Z,29.50
2018-07-22T16:52:32.487Z,29.80
2018-07-22T16:55:01.087Z,30.20
2018-07-22T16:57:29.711Z,29.90
2018-07-22T16:59:58.828Z,29.50
2018-07-22T17:02:27.925Z,28.80
2018-07-22T17:04:56.528Z,28.60
2018-07-22T17:07:25.098Z,28.40
2018-07-22T17:09:54.397Z,27.70
2018-07-22T17:12:22.940Z,27.40
2018-07-22T17:14:51.658Z,26.90
2018-07-22T17:17:20.617Z,26.40
2018-07-22T17:19:49.194Z,26.10
2018-07-22T17:22:17.753Z,25.90
2018-07-22T17:24:46.669Z,25.70
2018-07-22T17:27:15.607Z,25.40
2018-07-22T17:29:44.505Z,25.10
2018-07-22T17:32:13.369Z,24.70
2018-07-22T17:34:42.223Z,24.50
2018-07-22T17:37:11.081Z,24.30
2018-07-22T17:39:39.960Z,24.30
2018-07-22T17:42:09.229Z,24.20
2018-07-22T17:44:38.146Z,24.10
2018-07-22T17:47:07.193Z,24.00
2018-07-22T17:49:36.113Z,23.90
2018-07-22T17:52:05.068Z,23.90
2018-07-22T17:54:33.955Z,23.80
2018-07-22T17:57:02.832Z,23.70
2018-07-22T17:59:31.721Z,23.60
2018-07-22T18:02:00.283Z,23.40
2018-07-22T18:04:29.123Z,23.40
2018-07-22T18:06:58.038Z,23.30
2018-07-22T18:09:27.246Z,23.40
2018-07-22T18:11:56.173Z,23.40
2018-07-22T18:14:25.115Z,23.30
2018-07-22T18:16:54.459Z,23.30
2018-07-22T18:19:23.810Z,23.20
2018-07-22T18:21:52.845Z,23.10
2018-07-22T18:24:21.753Z,23.00
2018-07-22T18:26:50.720Z,22.90
2018-07-22T18:29:19.967Z,22.90
2018-07-22T18:31:48.877Z,22.80
2018-07-22T18:34:17.770Z,22.70
2018-07-22T18:36:46.976Z,22.60
2018-07-22T18:39:16.060Z,22.50
2018-07-22T18:41:45.239Z,22.40
2018-07-22T18:44:14.116Z,22.40
2018-07-22T18:46:43.043Z,22.20
2018-07-22T18:49:11.940Z,22.00
2018-07-22T18:51:40.828Z,21.90
2018-07-22T18:54:10.012Z,21.80
2018-07-22T18:56:38.880Z,21.70
2018-07-22T18:59:07.803Z,21.70
2018-07-22T19:01:36.155Z,21.50
2018-07-22T19:04:05.074Z,21.40
2018-07-22T19:06:33.980Z,21.30
2018-07-22T19:09:03.639Z,21.20
2018-07-22T19:11:32.708Z,21.10
2018-07-22T19:14:01.627Z,21.10
2018-07-22T19:16:30.649Z,21.00
2018-07-22T19:18:59.700Z,20.90
2018-07-22T19:21:28.919Z,20.80
2018-07-22T19:23:57.801Z,20.70
2018-07-22T19:26:26.749Z,20.50
2018-07-22T19:28:55.620Z,20.50
2018-07-22T19:31:24.481Z,20.40
2018-07-22T19:33:53.383Z,20.30
2018-07-22T19:36:22.292Z,20.20
2018-07-22T19:38:51.208Z,20.10
2018-07-22T19:41:20.443Z,20.00
2018-07-22T19:43:49.327Z,20.00
2018-07-22T19:46:18.256Z,19.90
2018-07-22T19:50:16.493Z,19.80
2018-07-22T19:52:46.321Z,19.70
2018-07-22T19:55:15.388Z,19.60
2018-07-22T19:57:45.862Z,19.60
2018-07-22T20:00:15.083Z,19.50
2018-07-22T20:02:43.777Z,19.40
2018-07-22T20:05:12.746Z,19.40
2018-07-22T20:07:41.804Z,19.40
2018-07-22T20:10:10.691Z,19.30
2018-07-22T20:12:39.875Z,19.30
2018-07-22T20:15:09.145Z,19.20
2018-07-22T20:17:38.297Z,19.10
2018-07-22T20:20:10.135Z,19.00
2018-07-22T20:22:39.159Z,19.00
2018-07-22T20:27:36.927Z,18.90
2018-07-22T20:30:06.164Z,18.90
2018-07-22T20:32:35.222Z,18.90
2018-07-22T20:35:04.592Z,18.80
2018-07-22T20:37:33.459Z,18.80
2018-07-22T20:40:02.377Z,18.70
2018-07-22T20:42:31.294Z,18.70
2018-07-22T21:13:07.618Z,18.50
2018-07-22T21:15:37.202Z,18.30
2018-07-22T21:18:06.127Z,18.30
2018-07-22T21:20:34.993Z,18.30
2018-07-22T21:23:10.958Z,18.20
2018-07-22T21:25:39.822Z,18.20
2018-07-22T21:28:08.706Z,18.20
2018-07-22T21:30:37.554Z,18.20
2018-07-22T21:33:06.440Z,18.20
2018-07-22T21:35:35.294Z,18.20
2018-07-22T21:38:04.658Z,18.20
2018-07-22T21:40:33.495Z,18.20
2018-07-22T21:43:02.342Z,18.20
2018-07-22T21:45:31.218Z,18.20
2018-07-22T21:48:00.158Z,18.20
2018-07-22T21:50:29.058Z,18.20
2018-07-22T21:52:58.324Z,18.20
2018-07-22T21:55:27.160Z,18.20
2018-07-22T21:57:56.710Z,18.20
2018-07-22T22:00:31.959Z,18.20
2018-07-22T22:03:06.237Z,18.20
2018-07-22T22:05:35.434Z,18.30
2018-07-22T22:08:04.443Z,18.20
2018-07-22T22:10:33.615Z,18.20
2018-07-22T22:13:02.493Z,18.30
2018-07-22T22:15:32.192Z,18.30
2018-07-22T22:18:02.308Z,18.30
2018-07-22T22:20:31.494Z,18.30
2018-07-22T22:23:00.347Z,18.30
2018-07-22T22:25:29.469Z,18.30
2018-07-22T22:27:58.283Z,18.30
2018-07-22T22:30:27.175Z,18.30
2018-07-22T22:32:56.081Z,18.30
2018-07-22T22:35:24.929Z,18.30
2018-07-22T22:37:53.853Z,18.40
2018-07-22T22:40:22.772Z,18.30
2018-07-22T22:42:55.029Z,18.30
2018-07-22T22:47:52.808Z,18.30
2018-07-22T22:50:21.913Z,18.30
2018-07-22T22:52:50.776Z,18.20
2018-07-22T22:55:19.656Z,18.30
2018-07-22T22:57:59.913Z,18.30
2018-07-22T23:00:28.757Z,18.20
2018-07-22T23:02:57.575Z,18.20
2018-07-22T23:05:26.456Z,18.10
2018-07-22T23:07:55.631Z,18.10
2018-07-22T23:10:24.456Z,18.10
2018-07-22T23:12:53.603Z,18.20
2018-07-22T23:15:22.462Z,18.20
2018-07-22T23:17:51.315Z,18.20
2018-07-22T23:20:20.209Z,18.10
2018-07-22T23:22:49.099Z,18.10
2018-07-22T23:25:17.916Z,18.10
2018-07-22T23:27:46.735Z,18.00
2018-07-22T23:32:44.174Z,18.00
2018-07-22T23:35:13.356Z,18.00
2018-07-22T23:37:42.183Z,18.00
2018-07-22T23:40:10.427Z,18.00
2018-07-22T23:42:39.291Z,18.00
2018-07-22T23:45:08.152Z,17.90
2018-07-22T23:47:37.048Z,17.90
2018-07-22T23:50:06.337Z,17.90
2018-07-22T23:52:35.489Z,17.90
2018-07-22T23:55:04.716Z,17.90
2018-07-22T23:57:32.983Z,17.90
